North Palm Beach, FL (33408)

3:27 PM EDT on July 28, 2017 (GMT -0400)
onSpot wifi - Old Port Cove Marina | | Change Station

Elev 20 ft 26.84 °N, 80.06 °W | Updated 1 second ago

Partly Cloudy
Partly Cloudy
87.4 °F
Feels Like 102 °F
N
12.1
Wind Variable Wind from SE
Gusts 13.0 mph

Today
High -- | Low -- °F
--% Chance of Precip.
Yesterday
High -- | Low -- °F
Precip. -- in
Pressure 29.95 in
Visibility 10.0 miles
Clouds Scattered Clouds 3700 ft
Mostly Cloudy 4900 ft
Mostly Cloudy 6500 ft
Heat Index 102 °F
Dew Point 79 °F
Humidity 77%
Rainfall 0.00 in
Snow Depth Not available.
6:42 AM 8:10 PM
Waxing Crescent, 32% visible
METAR KPBI 281853Z 13014KT 10SM SCT037 BKN049 BKN065 32/24 A2995 RMK AO2 TSE1758 SLP140 CB DSNT S W T03220244
Pressure 29.95 in
Visibility 10.0 miles
Clouds Scattered Clouds 3700 ft
Mostly Cloudy 4900 ft
Mostly Cloudy 6500 ft
Heat Index 102 °F
Dew Point 79 °F
Humidity 77%
Rainfall 0.00 in
Snow Depth Not available.
6:42 AM 8:10 PM
Waxing Crescent, 32% visible
METAR KPBI 281853Z 13014KT 10SM SCT037 BKN049 BKN065 32/24 A2995 RMK AO2 TSE1758 SLP140 CB DSNT S W T03220244

Get Severe Weather Alerts

Thanks for signing up!

Be on the lookout for a verification email in your inbox.

You'll start receiving the daily forecast at 6 AM.

×

10-Day Weather Forecast

Almanac

Astronomy

Jul. 28, 2017 Rise Set
Actual Time
Civil Twilight
Nautical Twilight
Astronomical Twilight
Moon
Length of Visible Light
Length of Day
Tomorrow will be .
, % of the Moon is Illuminated

Today's Extremes

State Highs State Lows

Community

WunderPhotos

Category 6

Welcome to Category 6. This is the collective home for Weather Underground's featured writeups by Dr. Jeff Masters (right), Bob Henson (left), Chris Burt, and other regular contributors.

Nearby

Air Quality

  Air Quality AQ Index Pollutant
Not available.

Snow Depth

Station Depth Elevation

Earthquake Activity

City Distance Mag. Time & Date
Minimum magnitude displayed is 2.5.

Coastal Water Temperatures

Place Temperature

Stations

Nearby Weather Stations

Station Location Temp. Windchill Dew Point Humidity Wind Precip. Elev Updated Type
                   

Watches & Warnings

There are currently no watches in effect.